Time;durP1;ratioP1;P1;durP2;ratioP2;P2;SDS_P1;SDS_P2;PMS_P1;PMS_P2;Temp;Humidity;BMP_temperature;BMP_pressure;BME280_temperature;BME280_humidity;BME280_pressure;Samples;Min_cycle;Max_cycle;Signal;HPM_P1;HPM_P2
2024/01/24 00:01:58;;;;;;;8.23;6.25;;;23.10;99.90;;;;;;4953869;29;20058;-55
2024/01/24 00:04:24;;;;;;;8.43;6.47;;;23.10;99.90;;;;;;4952797;29;20035;-56
2024/01/24 00:06:50;;;;;;;7.97;5.70;;;23.00;99.90;;;;;;4953987;29;20064;-56
2024/01/24 00:09:16;;;;;;;8.35;6.55;;;23.00;99.90;;;;;;4954590;28;20468;-56
2024/01/24 00:11:42;;;;;;;8.95;6.80;;;23.00;99.90;;;;;;4957957;29;20042;-56
2024/01/24 00:14:09;;;;;;;10.23;7.00;;;23.00;99.90;;;;;;4957652;29;20431;-55
2024/01/24 00:16:34;;;;;;;9.63;6.80;;;23.00;99.90;;;;;;4957815;29;20390;-56
2024/01/24 00:19:00;;;;;;;9.73;6.32;;;22.90;99.90;;;;;;4957705;29;20027;-56
2024/01/24 00:21:26;;;;;;;10.00;7.45;;;23.00;99.90;;;;;;4957838;29;20115;-56
2024/01/24 00:23:52;;;;;;;9.27;6.75;;;22.90;99.90;;;;;;4957533;29;20098;-56
2024/01/24 00:26:18;;;;;;;8.63;6.53;;;22.90;99.90;;;;;;4957487;29;20086;-56
2024/01/24 00:28:43;;;;;;;8.32;5.75;;;22.90;99.90;;;;;;4957608;29;20368;-56
2024/01/24 00:31:09;;;;;;;8.85;6.55;;;22.90;99.90;;;;;;4957614;29;20031;-56
2024/01/24 00:33:35;;;;;;;7.50;5.70;;;22.90;99.90;;;;;;4956224;29;20440;-55
2024/01/24 00:36:01;;;;;;;7.50;5.95;;;22.90;99.90;;;;;;4940229;29;20542;-55
2024/01/24 00:38:27;;;;;;;7.53;5.60;;;22.90;99.90;;;;;;4939979;29;20051;-56
2024/01/24 00:40:53;;;;;;;8.52;6.35;;;22.80;99.90;;;;;;4956059;29;20026;-55
2024/01/24 00:43:18;;;;;;;9.38;5.93;;;22.80;99.90;;;;;;4957275;29;20062;-56
2024/01/24 00:45:44;;;;;;;8.35;5.72;;;22.80;99.90;;;;;;4940336;29;20031;-56
2024/01/24 00:48:10;;;;;;;7.82;5.60;;;22.80;99.90;;;;;;4955911;29;20019;-55
2024/01/24 00:50:36;;;;;;;7.05;5.55;;;22.80;99.90;;;;;;4956953;29;20451;-55
2024/01/24 00:53:05;;;;;;;6.97;5.15;;;22.80;99.90;;;;;;4957198;29;20023;-56
2024/01/24 00:55:31;;;;;;;7.38;5.03;;;22.70;99.90;;;;;;4957078;29;20361;-56
2024/01/24 00:58:00;;;;;;;7.90;5.50;;;22.80;99.90;;;;;;4956882;29;20030;-55
2024/01/24 01:00:26;;;;;;;6.93;5.22;;;22.70;99.90;;;;;;4969685;23;20019;-51
2024/01/24 01:02:51;;;;;;;7.43;5.75;;;22.70;99.90;;;;;;4935990;29;20047;-52
2024/01/24 01:05:17;;;;;;;7.05;5.10;;;22.70;99.90;;;;;;4938012;29;20535;-51
2024/01/24 01:07:43;;;;;;;9.20;6.00;;;22.70;99.90;;;;;;4936507;29;20449;-51
2024/01/24 01:10:09;;;;;;;6.32;5.13;;;22.70;99.90;;;;;;4937678;29;20036;-51
2024/01/24 01:12:35;;;;;;;8.20;5.32;;;22.70;99.90;;;;;;4920574;29;20389;-52
2024/01/24 01:15:01;;;;;;;6.22;4.57;;;22.70;99.90;;;;;;4937573;29;20034;-52
2024/01/24 01:17:26;;;;;;;7.40;5.50;;;22.70;99.90;;;;;;4937883;29;20543;-53
2024/01/24 01:19:52;;;;;;;6.90;4.90;;;22.60;99.90;;;;;;4937546;29;20445;-52
2024/01/24 01:22:20;;;;;;;6.00;4.95;;;22.60;99.90;;;;;;4936491;29;20439;-53
2024/01/24 01:24:45;;;;;;;;;;;22.60;99.90;;;;;;4938083;29;20030;-52
2024/01/24 01:27:11;;;;;;;6.72;4.78;;;22.60;99.90;;;;;;4937306;29;19906;-52
2024/01/24 01:29:37;;;;;;;7.53;5.00;;;22.60;99.90;;;;;;4937327;29;20561;-53
2024/01/24 01:32:03;;;;;;;6.38;4.88;;;22.60;99.90;;;;;;4937248;29;20107;-53
2024/01/24 01:34:29;;;;;;;6.78;4.80;;;22.60;99.90;;;;;;4936066;29;20028;-52
2024/01/24 01:36:55;;;;;;;7.05;5.45;;;22.60;99.90;;;;;;4937481;29;20535;-53
2024/01/24 01:39:20;;;;;;;7.97;5.78;;;22.50;99.90;;;;;;4937816;29;20470;-52
2024/01/24 01:41:48;;;;;;;6.43;5.05;;;22.60;99.90;;;;;;4937532;29;20150;-52
2024/01/24 01:44:17;;;;;;;7.15;5.00;;;22.50;99.90;;;;;;4937370;29;20058;-52
2024/01/24 01:46:46;;;;;;;8.10;4.90;;;22.50;99.90;;;;;;4937388;29;20449;-50
2024/01/24 01:49:12;;;;;;;7.35;5.20;;;22.50;99.90;;;;;;4937031;29;20046;-50
2024/01/24 01:51:38;;;;;;;5.70;4.80;;;22.50;99.90;;;;;;4937019;29;20035;-53
2024/01/24 01:54:08;;;;;;;6.15;4.57;;;22.50;99.90;;;;;;4936934;29;20024;-52
2024/01/24 01:56:35;;;;;;;5.18;4.13;;;22.50;99.90;;;;;;4936828;29;20028;-53
2024/01/24 01:59:01;;;;;;;7.40;4.88;;;22.50;99.90;;;;;;4936847;29;20042;-52
2024/01/24 02:01:27;;;;;;;6.13;4.38;;;22.50;99.90;;;;;;4935789;29;20052;-53
2024/01/24 02:03:53;;;;;;;6.20;4.85;;;22.40;99.90;;;;;;4936590;29;20114;-53
2024/01/24 02:06:19;;;;;;;7.25;5.13;;;22.40;99.90;;;;;;4936792;29;20465;-53
2024/01/24 02:08:45;;;;;;;5.63;4.32;;;22.40;99.90;;;;;;4936253;29;20039;-51
2024/01/24 02:11:12;;;;;;;7.20;5.03;;;22.40;99.90;;;;;;4936419;29;20380;-52
2024/01/24 02:13:38;;;;;;;5.07;4.18;;;22.40;99.90;;;;;;4936466;29;20023;-51
2024/01/24 02:16:04;;;;;;;6.28;4.80;;;22.40;99.90;;;;;;4936390;29;20095;-51
2024/01/24 02:18:30;;;;;;;6.15;4.85;;;22.40;99.90;;;;;;4936315;29;20443;-53
2024/01/24 02:20:56;;;;;;;8.82;5.13;;;22.40;99.90;;;;;;4936178;29;20488;-52
2024/01/24 02:23:25;;;;;;;5.57;4.57;;;22.30;99.90;;;;;;4936344;29;20032;-51
2024/01/24 02:25:54;;;;;;;5.65;4.53;;;22.30;99.90;;;;;;4936332;29;20055;-51
2024/01/24 02:28:20;;;;;;;6.65;4.63;;;22.30;99.90;;;;;;4936389;29;20038;-52
2024/01/24 02:30:46;;;;;;;7.15;4.43;;;22.30;99.90;;;;;;4919028;29;20171;-52
2024/01/24 02:33:13;;;;;;;5.97;4.43;;;22.30;99.90;;;;;;4935685;29;20547;-51
2024/01/24 02:35:38;;;;;;;5.90;4.75;;;22.30;99.90;;;;;;4935894;29;20035;-51
2024/01/24 02:38:05;;;;;;;5.40;4.43;;;22.30;99.90;;;;;;4935912;29;20035;-52
2024/01/24 02:40:31;;;;;;;5.53;4.28;;;22.30;99.90;;;;;;4935978;29;20434;-51
2024/01/24 02:42:57;;;;;;;6.13;4.68;;;22.20;99.90;;;;;;4935961;29;20056;-52
2024/01/24 02:45:22;;;;;;;6.88;4.95;;;22.20;99.90;;;;;;4936076;29;20024;-52
2024/01/24 02:47:49;;;;;;;5.70;4.20;;;22.20;99.90;;;;;;4935620;29;20020;-51
2024/01/24 02:50:16;;;;;;;6.45;4.50;;;22.20;99.90;;;;;;4935739;29;20074;-54
2024/01/24 02:52:42;;;;;;;7.20;5.15;;;22.20;99.90;;;;;;4918451;29;20044;-52
2024/01/24 02:55:12;;;;;;;6.75;4.82;;;22.20;99.90;;;;;;4935774;29;20051;-53
2024/01/24 02:57:38;;;;;;;6.07;4.40;;;22.30;99.90;;;;;;4935636;29;20024;-53
2024/01/24 03:00:07;;;;;;;7.13;4.57;;;22.20;99.90;;;;;;4935446;29;20106;-53
2024/01/24 03:02:33;;;;;;;7.28;4.95;;;22.20;99.90;;;;;;4979626;23;20059;-55
2024/01/24 03:04:59;;;;;;;7.65;4.55;;;22.10;99.90;;;;;;4956430;28;20035;-55
2024/01/24 03:07:25;;;;;;;6.85;5.40;;;22.10;99.90;;;;;;4974097;28;20118;-54
2024/01/24 03:09:52;;;;;;;7.45;4.43;;;22.20;99.90;;;;;;4972136;28;20094;-54
2024/01/24 03:12:19;;;;;;;11.20;5.45;;;22.10;99.90;;;;;;4969340;28;20444;-56
2024/01/24 03:14:45;;;;;;;6.65;4.80;;;22.10;99.90;;;;;;4972445;28;20113;-55
2024/01/24 03:17:11;;;;;;;9.02;5.00;;;22.10;99.90;;;;;;4973186;28;20066;-56
2024/01/24 03:19:36;;;;;;;9.00;5.18;;;22.10;99.90;;;;;;4972813;28;20035;-56
2024/01/24 03:22:02;;;;;;;6.88;4.78;;;22.10;99.90;;;;;;4972846;28;20023;-57
2024/01/24 03:24:28;;;;;;;7.15;4.28;;;22.10;99.90;;;;;;4973526;28;20035;-57
2024/01/24 03:26:54;;;;;;;8.52;5.15;;;22.10;99.90;;;;;;4972994;28;20015;-56
2024/01/24 03:29:20;;;;;;;14.80;5.15;;;22.10;99.90;;;;;;4973201;28;20042;-56
2024/01/24 03:31:45;;;;;;;8.02;4.90;;;22.10;99.90;;;;;;4973310;28;20035;-57
2024/01/24 03:34:12;;;;;;;8.77;5.15;;;22.10;99.90;;;;;;4956019;28;20062;-57
2024/01/24 03:36:38;;;;;;;7.13;4.60;;;22.10;99.90;;;;;;4955254;28;20038;-57
2024/01/24 03:39:04;;;;;;;7.50;5.32;;;22.10;99.90;;;;;;4955759;28;20026;-55
2024/01/24 03:41:30;;;;;;;8.10;5.22;;;22.10;99.90;;;;;;4972523;28;20062;-55
2024/01/24 03:43:56;;;;;;;7.53;5.13;;;22.10;99.90;;;;;;4972398;28;20035;-56
2024/01/24 03:46:21;;;;;;;6.80;4.97;;;22.10;99.90;;;;;;4973136;28;20027;-56
2024/01/24 03:48:47;;;;;;;8.07;5.30;;;22.10;99.90;;;;;;4972444;28;20206;-55
2024/01/24 03:51:13;;;;;;;7.45;5.07;;;22.10;99.90;;;;;;4973164;28;20117;-56
2024/01/24 03:53:39;;;;;;;7.35;5.25;;;22.00;99.90;;;;;;4972892;28;20026;-56
2024/01/24 03:56:06;;;;;;;7.78;4.88;;;22.10;99.90;;;;;;4972940;28;20023;-57
2024/01/24 03:58:31;;;;;;;6.57;5.07;;;22.00;99.90;;;;;;4972763;28;20038;-55
2024/01/24 04:00:58;;;;;;;7.75;5.05;;;22.00;99.90;;;;;;4973347;28;20051;-55
2024/01/24 04:03:23;;;;;;;7.40;5.22;;;22.00;99.90;;;;;;4972640;28;20481;-55
2024/01/24 04:05:49;;;;;;;7.65;4.72;;;22.00;99.90;;;;;;4973071;28;20102;-55
2024/01/24 04:08:15;;;;;;;8.63;5.65;;;22.00;99.90;;;;;;4972741;28;20027;-55
2024/01/24 04:10:41;;;;;;;8.27;5.43;;;22.00;99.90;;;;;;4972300;28;20039;-55
2024/01/24 04:13:06;;;;;;;7.78;5.68;;;22.00;99.90;;;;;;4971623;28;20019;-55
2024/01/24 04:15:32;;;;;;;7.53;5.15;;;22.00;99.90;;;;;;4973045;28;20513;-55
2024/01/24 04:17:59;;;;;;;7.20;5.47;;;22.00;99.90;;;;;;4973334;28;20027;-55
2024/01/24 04:20:24;;;;;;;8.40;5.38;;;22.00;99.90;;;;;;4972999;28;20495;-55
2024/01/24 04:22:50;;;;;;;8.02;5.35;;;21.90;99.90;;;;;;4972203;28;20054;-55
2024/01/24 04:25:16;;;;;;;8.15;5.57;;;21.90;99.90;;;;;;4971784;28;20030;-55
2024/01/24 04:27:42;;;;;;;7.93;4.78;;;21.90;99.90;;;;;;4973142;28;20101;-55
2024/01/24 04:30:08;;;;;;;6.50;4.72;;;21.90;99.90;;;;;;4972778;28;20483;-55
2024/01/24 04:32:34;;;;;;;8.07;5.75;;;21.90;99.90;;;;;;4972880;28;20019;-55
2024/01/24 04:35:00;;;;;;;8.10;5.35;;;21.90;99.90;;;;;;4955817;28;20034;-54
2024/01/24 04:37:26;;;;;;;10.40;5.15;;;21.90;99.90;;;;;;4972970;28;20030;-55
2024/01/24 04:39:52;;;;;;;9.07;5.60;;;21.90;99.90;;;;;;4972966;28;20067;-55
2024/01/24 04:42:17;;;;;;;11.43;6.10;;;21.90;99.90;;;;;;4972923;28;20035;-55
2024/01/24 04:44:44;;;;;;;10.00;5.57;;;21.80;99.90;;;;;;4972816;28;20105;-55
2024/01/24 04:47:09;;;;;;;7.07;5.32;;;21.80;99.90;;;;;;4972730;28;20096;-55
2024/01/24 04:49:35;;;;;;;9.15;5.80;;;21.80;99.90;;;;;;4972834;28;20035;-55
2024/01/24 04:52:02;;;;;;;8.40;5.43;;;21.80;99.90;;;;;;4972966;28;20034;-55
2024/01/24 04:54:28;;;;;;;9.32;5.80;;;21.80;99.90;;;;;;4973042;28;20054;-55
2024/01/24 04:56:54;;;;;;;14.60;5.57;;;21.80;99.90;;;;;;4975978;28;20394;-55
2024/01/24 04:59:19;;;;;;;9.75;6.18;;;21.80;99.90;;;;;;4976119;28;20440;-55
2024/01/24 05:01:47;;;;;;;21.35;7.90;;;21.80;99.90;;;;;;4976190;28;20503;-55
2024/01/24 05:04:13;;;;;;;;;;;21.70;99.90;;;;;;4976573;28;20058;-55
2024/01/24 05:06:39;;;;;;;11.13;5.40;;;21.70;99.90;;;;;;4976056;28;20371;-55
2024/01/24 05:09:05;;;;;;;8.18;5.75;;;21.80;99.90;;;;;;4958481;28;20443;-55
2024/01/24 05:11:30;;;;;;;8.43;5.88;;;21.70;99.90;;;;;;4976114;28;20026;-56
2024/01/24 05:14:00;;;;;;;7.50;5.13;;;21.70;99.90;;;;;;4975960;28;20031;-55
2024/01/24 05:16:26;;;;;;;8.85;5.72;;;21.70;99.90;;;;;;4975947;28;20030;-55
2024/01/24 05:18:52;;;;;;;7.22;5.13;;;21.60;99.90;;;;;;4975988;28;20055;-55
2024/01/24 05:21:18;;;;;;;6.90;4.90;;;21.70;99.90;;;;;;4975867;28;20066;-56
2024/01/24 05:23:44;;;;;;;9.68;5.43;;;21.60;99.90;;;;;;4958449;28;20360;-55
2024/01/24 05:26:10;;;;;;;9.73;5.75;;;21.60;99.90;;;;;;4975836;28;20055;-54
2024/01/24 05:28:35;;;;;;;7.53;5.03;;;21.60;99.90;;;;;;4975887;28;20502;-54
2024/01/24 05:31:01;;;;;;;11.25;5.57;;;21.60;99.90;;;;;;4975861;28;20126;-54
2024/01/24 05:33:28;;;;;;;9.65;5.93;;;21.60;99.90;;;;;;4975651;28;20463;-55
2024/01/24 05:35:54;;;;;;;8.45;5.20;;;21.60;99.90;;;;;;4958251;28;20085;-54
2024/01/24 05:38:20;;;;;;;6.82;4.95;;;21.60;99.90;;;;;;4975483;28;20042;-55
2024/01/24 05:40:45;;;;;;;8.45;6.13;;;21.60;99.90;;;;;;4958305;28;20069;-54
2024/01/24 05:43:12;;;;;;;10.05;5.55;;;21.60;99.90;;;;;;4975514;28;20031;-54
2024/01/24 05:45:38;;;;;;;9.07;5.43;;;21.50;99.90;;;;;;4958261;28;20046;-54
2024/01/24 05:48:04;;;;;;;7.45;5.05;;;21.60;99.90;;;;;;4975596;28;20023;-54
2024/01/24 05:50:30;;;;;;;7.05;4.97;;;21.60;99.90;;;;;;4975465;28;20039;-54
2024/01/24 05:52:55;;;;;;;7.78;5.35;;;21.50;99.90;;;;;;4975416;28;20101;-54
2024/01/24 05:55:21;;;;;;;7.40;5.40;;;21.50;99.90;;;;;;4975232;28;20034;-55
2024/01/24 05:57:47;;;;;;;9.95;5.38;;;21.50;99.90;;;;;;4975191;28;20022;-55
2024/01/24 06:00:14;;;;;;;7.32;5.25;;;21.50;99.90;;;;;;4956980;28;20149;-55
2024/01/24 06:02:40;;;;;;;7.82;5.75;;;21.50;99.90;;;;;;4974733;28;20047;-55
2024/01/24 06:05:07;;;;;;;9.27;5.93;;;21.50;99.90;;;;;;4974493;28;20042;-55
2024/01/24 06:07:33;;;;;;;10.98;6.25;;;21.50;99.90;;;;;;4973026;28;20110;-55
2024/01/24 06:10:00;;;;;;;8.10;5.35;;;21.50;99.90;;;;;;4974861;28;20515;-56
2024/01/24 06:12:27;;;;;;;7.63;5.15;;;21.50;99.90;;;;;;4974886;28;20046;-56
2024/01/24 06:14:55;;;;;;;9.68;5.80;;;21.50;99.90;;;;;;4975137;28;20097;-56
2024/01/24 06:17:22;;;;;;;12.00;5.63;;;21.50;99.90;;;;;;4975430;28;20023;-55
2024/01/24 06:19:50;;;;;;;11.88;6.45;;;21.40;99.90;;;;;;4975075;28;20031;-55
2024/01/24 06:22:16;;;;;;;9.48;6.20;;;21.40;99.90;;;;;;4975057;28;20396;-55
2024/01/24 06:24:42;;;;;;;6.55;4.90;;;21.40;99.90;;;;;;4974888;28;20081;-55
2024/01/24 06:27:09;;;;;;;7.95;5.68;;;21.40;99.90;;;;;;4975349;28;20061;-54
2024/01/24 06:29:34;;;;;;;8.65;5.40;;;21.40;99.90;;;;;;4975021;28;20039;-55
2024/01/24 06:32:00;;;;;;;8.35;5.25;;;21.40;99.90;;;;;;4957125;28;20027;-55
2024/01/24 06:34:26;;;;;;;10.05;5.88;;;21.40;99.90;;;;;;4974620;28;20027;-56
2024/01/24 06:36:52;;;;;;;9.10;5.57;;;21.40;99.90;;;;;;4974592;28;20037;-55
2024/01/24 06:39:18;;;;;;;12.43;5.80;;;21.40;99.90;;;;;;4975015;28;20027;-55
2024/01/24 06:41:46;;;;;;;10.80;4.93;;;21.40;99.90;;;;;;4974498;28;20102;-55
2024/01/24 06:44:12;;;;;;;6.78;4.82;;;21.40;99.90;;;;;;4974777;28;20539;-55
2024/01/24 06:46:42;;;;;;;7.90;5.15;;;21.40;99.90;;;;;;4974753;28;20113;-55
2024/01/24 06:49:10;;;;;;;8.35;5.05;;;21.40;99.90;;;;;;4974430;28;20035;-55
2024/01/24 06:51:37;;;;;;;9.90;5.20;;;21.40;99.90;;;;;;4974433;28;20023;-55
2024/01/24 06:54:04;;;;;;;9.18;5.25;;;21.30;99.90;;;;;;4956914;28;20027;-56
2024/01/24 06:56:30;;;;;;;8.20;5.50;;;21.30;99.90;;;;;;4974476;28;20031;-55
2024/01/24 06:58:56;;;;;;;7.20;5.00;;;21.30;99.90;;;;;;4974255;28;20534;-56
2024/01/24 07:01:21;;;;;;;8.02;4.38;;;21.30;99.90;;;;;;4974141;28;20051;-56
2024/01/24 07:03:48;;;;;;;8.30;4.45;;;21.30;99.90;;;;;;4975648;28;20216;-56
2024/01/24 07:06:14;;;;;;;11.23;4.70;;;21.30;99.90;;;;;;4974623;28;20110;-55
2024/01/24 07:08:42;;;;;;;7.70;4.95;;;21.30;99.90;;;;;;4976138;28;20018;-56
2024/01/24 07:11:09;;;;;;;8.70;4.72;;;21.30;99.90;;;;;;4959697;28;20039;-56
2024/01/24 07:13:34;;;;;;;6.05;4.32;;;21.30;99.90;;;;;;4977323;28;20099;-58
2024/01/24 07:16:03;;;;;;;8.35;4.80;;;21.30;99.90;;;;;;4957096;28;20027;-58
2024/01/24 07:18:31;;;;;;;7.15;4.20;;;21.30;99.90;;;;;;4973931;28;20023;-56
2024/01/24 07:20:57;;;;;;;7.85;4.65;;;21.20;99.90;;;;;;4973882;28;20019;-56
2024/01/24 07:23:22;;;;;;;7.55;4.40;;;21.20;99.90;;;;;;4973784;28;20030;-55
2024/01/24 07:25:48;;;;;;;8.80;4.30;;;21.20;99.90;;;;;;4956232;28;20037;-55
2024/01/24 07:28:14;;;;;;;6.22;3.80;;;21.20;99.90;;;;;;4973801;28;20026;-55
2024/01/24 07:30:40;;;;;;;7.95;4.28;;;21.20;99.90;;;;;;4973919;28;20487;-56
2024/01/24 07:33:06;;;;;;;9.00;4.43;;;21.20;99.90;;;;;;4973607;28;20023;-55
2024/01/24 07:35:31;;;;;;;6.60;3.97;;;21.20;99.90;;;;;;4973614;28;20081;-55
2024/01/24 07:37:58;;;;;;;5.28;3.60;;;21.20;99.90;;;;;;4973583;28;20022;-55
2024/01/24 07:40:24;;;;;;;10.63;3.92;;;21.20;99.90;;;;;;4973434;28;20538;-55
2024/01/24 07:42:50;;;;;;;7.28;4.18;;;21.20;99.90;;;;;;4973525;28;20110;-55
2024/01/24 07:45:16;;;;;;;10.85;5.03;;;21.20;99.90;;;;;;4973520;28;20146;-55
2024/01/24 07:47:42;;;;;;;6.90;4.20;;;21.20;99.90;;;;;;4973640;28;20023;-56
2024/01/24 07:50:08;;;;;;;8.45;4.20;;;21.20;99.90;;;;;;4973363;28;20737;-56
2024/01/24 07:52:34;;;;;;;7.25;3.80;;;21.20;99.90;;;;;;4973286;28;20034;-56
2024/01/24 07:55:00;;;;;;;6.65;4.10;;;21.20;99.90;;;;;;4973431;28;20031;-57
2024/01/24 07:57:26;;;;;;;5.50;3.95;;;21.20;99.90;;;;;;4973416;28;20033;-55
2024/01/24 07:59:51;;;;;;;6.50;3.50;;;21.20;99.90;;;;;;4973492;28;20033;-55
2024/01/24 08:02:17;;;;;;;7.70;3.88;;;21.20;99.90;;;;;;4973252;28;20043;-55
2024/01/24 08:04:43;;;;;;;8.77;4.18;;;21.20;99.90;;;;;;4973472;28;20023;-55
2024/01/24 08:07:09;;;;;;;5.57;3.75;;;21.20;99.90;;;;;;4973155;28;20041;-55
2024/01/24 08:09:35;;;;;;;5.70;4.10;;;21.20;99.90;;;;;;4973210;28;20023;-55
2024/01/24 08:12:01;;;;;;;7.20;3.75;;;21.30;99.90;;;;;;4973240;28;20030;-55
2024/01/24 08:14:27;;;;;;;7.43;4.00;;;21.30;99.90;;;;;;4973347;28;20102;-56
2024/01/24 08:17:03;;;;;;;5.15;4.18;;;21.30;99.90;;;;;;4973376;28;20027;-55
2024/01/24 08:19:30;;;;;;;6.82;3.85;;;21.30;99.90;;;;;;4973108;28;20030;-55
2024/01/24 08:21:56;;;;;;;6.68;4.20;;;21.30;99.90;;;;;;4973164;28;20023;-55
2024/01/24 08:24:22;;;;;;;8.60;4.50;;;21.30;99.90;;;;;;4955823;28;20023;-56
2024/01/24 08:26:48;;;;;;;5.72;3.55;;;21.30;99.90;;;;;;4973154;28;20027;-57
2024/01/24 08:29:15;;;;;;;6.40;3.72;;;21.30;99.90;;;;;;4973239;28;20038;-55
2024/01/24 08:31:41;;;;;;;6.47;4.13;;;21.30;99.90;;;;;;4976024;28;20019;-55
2024/01/24 08:34:07;;;;;;;6.53;3.83;;;21.40;99.90;;;;;;4976631;28;20034;-55
2024/01/24 08:36:33;;;;;;;8.23;4.90;;;21.40;99.90;;;;;;4959733;28;20037;-58
2024/01/24 08:38:59;;;;;;;8.65;4.03;;;21.40;99.90;;;;;;4976540;28;20030;-56
2024/01/24 08:41:25;;;;;;;6.57;3.83;;;21.40;99.90;;;;;;4976650;28;20029;-56
2024/01/24 08:43:52;;;;;;;5.60;3.83;;;21.40;99.90;;;;;;4959138;28;20026;-56
2024/01/24 08:46:18;;;;;;;6.15;4.13;;;21.40;99.90;;;;;;4976657;28;20030;-56
2024/01/24 08:48:44;;;;;;;7.63;4.10;;;21.40;99.90;;;;;;4976426;28;20031;-56
2024/01/24 08:51:11;;;;;;;5.30;3.63;;;21.50;99.90;;;;;;4959038;28;20070;-55
2024/01/24 08:53:37;;;;;;;4.95;3.47;;;21.50;99.90;;;;;;4976412;28;20022;-56
2024/01/24 08:56:03;;;;;;;4.75;3.47;;;21.50;99.90;;;;;;4976157;28;20081;-56
2024/01/24 08:58:30;;;;;;;6.72;4.13;;;21.40;99.90;;;;;;4976150;28;20097;-56
2024/01/24 09:00:55;;;;;;;6.05;3.63;;;21.40;99.90;;;;;;4976040;28;20039;-56
2024/01/24 09:03:21;;;;;;;7.22;4.25;;;21.50;99.90;;;;;;4976138;28;20030;-56
2024/01/24 09:05:49;;;;;;;5.38;3.90;;;21.50;99.90;;;;;;4976402;28;20033;-55
2024/01/24 09:08:14;;;;;;;5.85;3.83;;;21.50;99.90;;;;;;4976501;28;20050;-55
2024/01/24 09:10:40;;;;;;;7.15;3.72;;;21.50;99.90;;;;;;4975749;28;20631;-55
2024/01/24 09:13:06;;;;;;;7.93;4.60;;;21.50;99.90;;;;;;4975982;28;20081;-55
2024/01/24 09:15:32;;;;;;;6.57;4.32;;;21.60;99.90;;;;;;4976067;28;20042;-55
2024/01/24 09:17:58;;;;;;;6.30;4.03;;;21.60;99.90;;;;;;4975803;28;20019;-56
2024/01/24 09:20:23;;;;;;;6.68;4.28;;;21.60;99.90;;;;;;4976181;28;20526;-56
2024/01/24 09:22:50;;;;;;;6.38;3.65;;;21.60;99.90;;;;;;4976018;28;20027;-56
2024/01/24 09:25:16;;;;;;;6.80;4.20;;;21.60;99.90;;;;;;4958635;28;20031;-55
2024/01/24 09:27:42;;;;;;;6.97;4.05;;;21.60;99.90;;;;;;4958198;28;20041;-56
2024/01/24 09:30:08;;;;;;;7.65;3.92;;;21.70;99.90;;;;;;4975584;28;20399;-56
2024/01/24 09:32:34;;;;;;;8.38;4.57;;;21.70;99.90;;;;;;4975644;28;20098;-56
2024/01/24 09:35:00;;;;;;;7.13;3.70;;;21.70;99.90;;;;;;4975659;28;20110;-57
2024/01/24 09:37:27;;;;;;;6.68;3.75;;;21.70;99.90;;;;;;4975563;28;20019;-57
2024/01/24 09:39:52;;;;;;;6.87;3.40;;;21.70;99.90;;;;;;4975652;28;20375;-57
2024/01/24 09:42:27;;;;;;;5.13;3.60;;;21.80;99.90;;;;;;4974666;28;20027;-57
2024/01/24 09:44:58;;;;;;;6.72;4.05;;;21.80;99.90;;;;;;4975505;28;20502;-57
2024/01/24 09:47:24;;;;;;;8.10;3.88;;;21.80;99.90;;;;;;4957905;28;20027;-57
2024/01/24 09:49:51;;;;;;;9.63;3.90;;;21.90;99.90;;;;;;4975575;28;20035;-57
2024/01/24 09:52:19;;;;;;;8.23;4.13;;;21.90;99.90;;;;;;4975578;28;20467;-56
2024/01/24 09:54:45;;;;;;;;;;;21.90;99.90;;;;;;4975781;28;20248;-56
2024/01/24 09:57:12;;;;;;;5.93;3.85;;;22.00;99.90;;;;;;4975289;28;19960;-56
2024/01/24 09:59:39;;;;;;;6.15;3.42;;;22.00;99.90;;;;;;4975165;28;20030;-56
2024/01/24 10:02:06;;;;;;;7.28;3.92;;;22.00;99.90;;;;;;4974890;28;20050;-57
2024/01/24 10:04:37;;;;;;;5.05;3.38;;;22.00;99.90;;;;;;4975154;28;20049;-56
2024/01/24 10:07:07;;;;;;;4.70;3.10;;;22.10;99.90;;;;;;4975090;28;20031;-57
2024/01/24 10:09:32;;;;;;;6.60;3.42;;;22.10;99.90;;;;;;4974854;28;20034;-56
2024/01/24 10:11:58;;;;;;;4.88;3.45;;;22.10;99.90;;;;;;4974820;28;20103;-56
2024/01/24 10:14:24;;;;;;;5.85;3.40;;;22.20;99.90;;;;;;4957439;28;20523;-56
2024/01/24 10:16:53;;;;;;;6.43;3.78;;;22.20;99.90;;;;;;4974963;28;20023;-56
2024/01/24 10:19:24;;;;;;;6.30;3.53;;;22.20;99.90;;;;;;4974662;28;20106;-56
2024/01/24 10:21:50;;;;;;;5.75;3.03;;;22.30;99.90;;;;;;4974905;28;20099;-58
2024/01/24 10:24:16;;;;;;;7.13;3.50;;;22.30;99.90;;;;;;4974676;28;20031;-55
2024/01/24 10:26:44;;;;;;;6.25;3.97;;;22.40;99.90;;;;;;4957199;28;20023;-56
2024/01/24 10:29:11;;;;;;;7.50;3.50;;;22.40;99.90;;;;;;4974767;28;20015;-56
2024/01/24 10:31:37;;;;;;;6.88;3.25;;;22.50;99.90;;;;;;4974627;28;20090;-57
2024/01/24 10:34:04;;;;;;;5.13;3.45;;;22.50;99.90;;;;;;4974601;28;20031;-55
2024/01/24 10:36:30;;;;;;;6.45;3.70;;;22.60;99.90;;;;;;4974409;28;20098;-55
2024/01/24 10:39:05;;;;;;;8.50;3.53;;;22.60;99.90;;;;;;4974351;28;20106;-55
2024/01/24 10:41:39;;;;;;;5.03;3.30;;;22.70;99.90;;;;;;4974421;28;20053;-55
2024/01/24 10:44:09;;;;;;;6.88;3.58;;;22.70;99.90;;;;;;4974508;28;20027;-56
2024/01/24 10:46:36;;;;;;;7.25;3.50;;;22.70;99.90;;;;;;4956785;28;20117;-55
2024/01/24 10:49:05;;;;;;;6.40;3.10;;;22.80;99.90;;;;;;4974018;28;20019;-56
2024/01/24 10:51:32;;;;;;;6.63;3.28;;;22.80;99.90;;;;;;4974144;28;20034;-56
2024/01/24 10:53:58;;;;;;;5.72;3.30;;;22.80;99.90;;;;;;4956441;28;20031;-56
2024/01/24 10:56:24;;;;;;;8.32;2.97;;;22.90;99.90;;;;;;4974286;28;20109;-56
2024/01/24 10:58:51;;;;;;;8.77;3.42;;;22.90;99.90;;;;;;4974046;28;20444;-56
2024/01/24 11:01:17;;;;;;;8.97;3.67;;;23.00;99.90;;;;;;4973827;28;20411;-56
2024/01/24 11:03:47;;;;;;;6.40;3.30;;;23.00;99.90;;;;;;4956638;28;20027;-56
2024/01/24 11:06:16;;;;;;;7.55;3.30;;;23.00;99.90;;;;;;4973883;28;20023;-56
2024/01/24 11:09:08;;;;;;;5.15;3.40;;;23.00;99.90;;;;;;4973973;28;20030;-56
2024/01/24 11:11:35;;;;;;;11.32;3.35;;;23.10;99.90;;;;;;4973217;28;20102;-56
2024/01/24 11:14:02;;;;;;;11.00;3.13;;;23.10;99.90;;;;;;4973901;28;20468;-56
2024/01/24 11:16:34;;;;;;;7.82;3.25;;;23.20;99.90;;;;;;4956573;28;20069;-56
2024/01/24 11:19:22;;;;;;;11.65;3.63;;;23.20;99.90;;;;;;4973675;28;20027;-56
2024/01/24 11:21:49;;;;;;;7.55;3.10;;;23.20;99.90;;;;;;4973596;28;20027;-57
2024/01/24 11:24:40;;;;;;;6.85;3.78;;;23.20;99.90;;;;;;4975145;28;20110;-54
2024/01/24 11:27:33;;;;;;;9.80;4.03;;;23.30;99.90;;;;;;4971831;28;20058;-57
2024/01/24 11:30:28;;;;;;;5.85;3.40;;;23.30;99.90;;;;;;4961319;28;20553;-56
2024/01/24 11:32:58;;;;;;;10.45;3.15;;;23.30;99.90;;;;;;4962496;28;20121;-57
2024/01/24 11:35:26;;;;;;;9.05;2.80;;;23.40;99.90;;;;;;4970231;28;20034;-56
2024/01/24 11:37:55;;;;;;;4.60;3.00;;;23.40;99.90;;;;;;4971939;28;20444;-56
2024/01/24 11:40:24;;;;;;;5.80;3.08;;;23.40;99.90;;;;;;4967992;28;20023;-55
2024/01/24 11:42:54;;;;;;;6.35;3.47;;;23.50;99.90;;;;;;4972628;28;20078;-56
2024/01/24 11:45:22;;;;;;;9.07;3.10;;;23.50;99.90;;;;;;4973030;28;20026;-56
2024/01/24 11:47:48;;;;;;;8.60;3.67;;;23.50;99.90;;;;;;4963922;28;20057;-56
2024/01/24 11:50:14;;;;;;;9.13;2.95;;;23.50;99.90;;;;;;4963302;28;20039;-55
2024/01/24 11:52:41;;;;;;;4.70;2.70;;;23.70;99.90;;;;;;4967396;28;20029;-56
2024/01/24 11:55:07;;;;;;;9.77;3.10;;;23.70;99.90;;;;;;4966028;28;20030;-54
2024/01/24 11:57:33;;;;;;;6.93;3.33;;;23.70;99.90;;;;;;4972047;28;20101;-56
2024/01/24 11:59:59;;;;;;;11.73;3.72;;;23.70;99.90;;;;;;4973135;28;20521;-55
2024/01/24 12:02:25;;;;;;;9.52;3.10;;;23.70;99.90;;;;;;4972429;28;20074;-56
2024/01/24 12:04:52;;;;;;;8.80;3.53;;;23.80;99.90;;;;;;4972457;28;20027;-56
2024/01/24 12:07:19;;;;;;;4.25;3.08;;;23.80;99.90;;;;;;4976948;28;20061;-55
2024/01/24 12:09:44;;;;;;;5.93;2.95;;;23.90;99.90;;;;;;4975962;28;20035;-56
2024/01/24 12:12:13;;;;;;;5.93;3.08;;;23.90;99.90;;;;;;4976728;28;20031;-57
2024/01/24 12:14:40;;;;;;;5.00;3.17;;;24.00;99.90;;;;;;4976993;28;20113;-55
2024/01/24 12:17:10;;;;;;;6.97;3.20;;;24.00;99.90;;;;;;4976340;28;20050;-55
2024/01/24 12:19:36;;;;;;;4.90;3.20;;;24.00;99.90;;;;;;4976810;28;20115;-55
2024/01/24 12:22:08;;;;;;;5.95;3.38;;;24.00;99.90;;;;;;4976532;28;20105;-55
2024/01/24 12:24:38;;;;;;;9.25;3.88;;;24.10;99.90;;;;;;4976344;28;20113;-55
2024/01/24 12:27:06;;;;;;;3.92;2.85;;;24.10;99.90;;;;;;4976160;28;20491;-55
2024/01/24 12:29:33;;;;;;;6.82;3.10;;;24.20;99.90;;;;;;4976599;28;20054;-54
2024/01/24 12:32:03;;;;;;;6.07;3.30;;;24.20;99.90;;;;;;4976390;28;20031;-55
2024/01/24 12:34:30;;;;;;;10.63;2.88;;;24.20;99.90;;;;;;4976463;28;20415;-57
2024/01/24 12:37:02;;;;;;;5.97;2.83;;;24.20;99.90;;;;;;4976586;28;20059;-57
2024/01/24 12:39:31;;;;;;;4.85;2.78;;;24.20;99.90;;;;;;4975686;28;20038;-56
2024/01/24 12:41:57;;;;;;;9.13;3.22;;;24.30;99.90;;;;;;4976720;28;20051;-54
2024/01/24 12:44:23;;;;;;;8.60;3.38;;;24.30;99.90;;;;;;4958501;28;20078;-55